Time;durP1;ratioP1;P1;durP2;ratioP2;P2;SDS_P1;SDS_P2;PMS_P1;PMS_P2;Temp;Humidity;BMP_temperature;BMP_pressure;BME280_temperature;BME280_humidity;BME280_pressure;Samples;Min_cycle;Max_cycle;Signal;HPM_P1;HPM_P2
2022/05/29 00:00:55;;;;;;;3.55;2.17;;;;;;;8.69;100.00;101928.97;5002806;28;21090;-77
2022/05/29 00:03:21;;;;;;;3.58;2.25;;;;;;;8.75;100.00;101936.47;5001699;28;20022;-77
2022/05/29 00:05:48;;;;;;;6.10;2.03;;;;;;;8.69;100.00;101925.44;5004005;28;20084;-77
2022/05/29 00:08:23;;;;;;;5.45;2.38;;;;;;;8.76;100.00;101940.03;5002044;28;20456;-77
2022/05/29 00:10:49;;;;;;;5.93;2.55;;;;;;;8.78;100.00;101940.72;5020557;28;20026;-77
2022/05/29 00:13:14;;;;;;;7.28;2.20;;;;;;;8.67;100.00;101938.13;5002620;28;20084;-77
2022/05/29 00:15:40;;;;;;;7.97;2.58;;;;;;;8.67;100.00;101940.81;4987943;28;20026;-78
2022/05/29 00:18:07;;;;;;;6.15;2.47;;;;;;;8.61;100.00;101926.13;4985505;28;20088;-77
2022/05/29 00:20:36;;;;;;;8.98;2.10;;;;;;;8.69;100.00;101937.03;5020467;28;20044;-77
2022/05/29 00:23:02;;;;;;;4.05;2.33;;;;;;;8.65;100.00;101935.56;4971232;28;20030;-77
2022/05/29 00:25:28;;;;;;;3.42;2.20;;;;;;;8.66;100.00;101931.94;5002083;28;20124;-77
2022/05/29 00:27:53;;;;;;;3.30;2.15;;;;;;;8.56;100.00;101925.66;4983936;28;20069;-77
2022/05/29 00:30:24;;;;;;;4.45;2.42;;;;;;;8.47;100.00;101930.00;5000149;28;20364;-77
2022/05/29 00:32:53;;;;;;;6.30;2.78;;;;;;;8.36;100.00;101922.88;4994904;28;20490;-77
2022/05/29 00:35:18;;;;;;;4.82;2.25;;;;;;;8.22;100.00;101928.56;4986319;28;20162;-76
2022/05/29 00:37:47;;;;;;;6.10;2.40;;;;;;;8.11;100.00;101925.94;5013253;28;20134;-78
2022/05/29 00:40:34;;;;;;;3.30;2.30;;;;;;;8.11;100.00;101931.31;4994441;28;20026;-77
2022/05/29 00:43:00;;;;;;;4.30;2.35;;;;;;;8.12;100.00;101928.53;4956066;28;20036;-77
2022/05/29 00:45:32;;;;;;;6.45;2.20;;;;;;;8.15;100.00;101925.56;4969316;28;20396;-77
2022/05/29 00:47:58;;;;;;;0.85;0.85;;;;;;;8.19;100.00;101926.16;4993829;28;20044;-77
2022/05/29 00:50:24;;;;;;;6.90;2.20;;;;;;;8.22;100.00;101919.66;5001305;28;20458;-76
2022/05/29 00:52:50;;;;;;;6.10;2.38;;;;;;;8.34;100.00;101922.16;5004209;28;20034;-76
2022/05/29 00:55:20;;;;;;;6.15;2.13;;;;;;;8.38;100.00;101923.56;4989686;28;20033;-76
2022/05/29 00:57:53;;;;;;;5.10;2.00;;;;;;;8.37;100.00;101919.19;5004659;28;20040;-76
2022/05/29 01:00:25;;;;;;;4.57;2.25;;;;;;;8.34;100.00;101919.47;5003476;28;20384;-77
2022/05/29 01:02:52;;;;;;;5.50;2.27;;;;;;;8.28;100.00;101900.38;5017606;28;20413;-76
2022/05/29 01:05:19;;;;;;;5.63;1.70;;;;;;;8.58;100.00;101916.50;4990402;28;20334;-76
2022/05/29 01:07:47;;;;;;;8.27;2.15;;;;;;;8.68;100.00;101905.84;4986431;28;20033;-77
2022/05/29 01:10:13;;;;;;;8.52;2.55;;;;;;;8.73;100.00;101908.09;5006839;28;20026;-77
2022/05/29 01:12:52;;;;;;;1.77;1.23;;;;;;;8.80;100.00;101917.31;4989252;28;20032;-77
2022/05/29 01:15:24;;;;;;;6.78;2.13;;;;;;;8.70;100.00;101903.84;5005625;28;20400;-76
2022/05/29 01:18:14;;;;;;;3.92;2.30;;;;;;;8.78;100.00;101914.75;5004707;28;20046;-76
2022/05/29 01:21:01;;;;;;;3.45;2.05;;;;;;;8.74;100.00;101907.13;5018663;28;20350;-76
2022/05/29 01:23:40;;;;;;;2.25;1.60;;;;;;;8.79;100.00;101911.09;5007594;28;20038;-77
2022/05/29 01:26:08;;;;;;;4.65;2.33;;;;;;;8.65;100.00;101881.13;4999719;28;20455;-77
2022/05/29 01:28:55;;;;;;;4.47;1.92;;;;;;;8.81;100.00;101916.31;5002391;28;20033;-77
2022/05/29 01:31:33;;;;;;;5.20;1.73;;;;;;;8.76;100.00;101905.16;5002353;28;20040;-76
2022/05/29 01:34:12;;;;;;;3.03;2.17;;;;;;;8.66;100.00;101897.06;4991986;28;20026;-77
2022/05/29 01:36:54;;;;;;;6.60;2.83;;;;;;;8.54;100.00;101882.06;5018268;28;20128;-76
2022/05/29 01:39:35;;;;;;;5.68;2.40;;;;;;;8.58;100.00;101908.47;5005169;28;20030;-77
2022/05/29 01:42:26;;;;;;;2.72;1.88;;;;;;;8.45;100.00;101896.28;5004313;28;20029;-77
2022/05/29 01:45:01;;;;;;;5.18;2.35;;;;;;;8.40;100.00;101911.91;5004756;28;20038;-77
2022/05/29 01:47:43;;;;;;;4.20;2.13;;;;;;;8.33;100.00;101908.88;5001225;28;20044;-78
2022/05/29 01:50:16;;;;;;;2.22;1.25;;;;;;;8.29;100.00;101910.97;4988993;28;20053;-77
2022/05/29 01:52:52;;;;;;;3.47;2.40;;;;;;;8.23;100.00;101908.84;4974765;28;20025;-77
2022/05/29 01:55:37;;;;;;;3.50;2.00;;;;;;;8.19;100.00;101901.19;5007699;28;20097;-77
2022/05/29 01:58:10;;;;;;;4.50;2.20;;;;;;;8.30;100.00;101901.94;4999844;28;20022;-77
2022/05/29 02:00:35;;;;;;;2.55;2.00;;;;;;;8.32;100.00;101891.94;4972982;28;20053;-77
2022/05/29 02:03:20;;;;;;;4.43;2.05;;;;;;;8.41;100.00;101895.69;5001477;28;20381;-77
2022/05/29 02:05:50;;;;;;;5.10;2.30;;;;;;;8.36;100.00;101890.72;4999943;28;20093;-77
2022/05/29 02:08:24;;;;;;;3.60;1.90;;;;;;;8.29;100.00;101892.22;5000664;28;20381;-76
2022/05/29 02:10:54;;;;;;;3.45;1.73;;;;;;;8.35;100.00;101897.03;5003396;28;20128;-77
2022/05/29 02:13:34;;;;;;;2.45;1.90;;;;;;;8.22;100.00;101861.56;5004119;28;20029;-77
2022/05/29 02:16:32;;;;;;;4.35;2.53;;;;;;;8.42;100.00;101894.72;5003809;28;20068;-78
2022/05/29 02:19:05;;;;;;;5.07;2.60;;;;;;;8.36;100.00;101885.34;5002803;28;20073;-77
2022/05/29 02:21:50;;;;;;;7.30;2.53;;;;;;;8.30;100.00;101876.97;5007616;28;20053;-78
2022/05/29 02:24:19;;;;;;;13.45;2.38;;;;;;;8.35;100.00;101885.47;5004251;28;20365;-78
2022/05/29 02:26:57;;;;;;;3.65;2.45;;;;;;;8.41;100.00;101894.84;5004710;28;20038;-76
2022/05/29 02:29:23;;;;;;;3.88;2.53;;;;;;;8.28;100.00;101876.25;5020670;28;20123;-76
2022/05/29 02:32:09;;;;;;;4.57;2.75;;;;;;;8.04;100.00;101836.38;4981352;28;20117;-77
2022/05/29 02:35:03;;;;;;;6.90;2.25;;;;;;;8.48;100.00;101888.81;5001626;28;20080;-78
2022/05/29 02:37:46;;;;;;;5.05;2.38;;;;;;;8.55;100.00;101889.13;4992434;28;20052;-79
2022/05/29 02:40:51;;;;;;;6.55;2.63;;;;;;;8.47;100.00;101884.44;4996274;28;20033;-78
2022/05/29 02:43:39;;;;;;;5.70;2.58;;;;;;;8.41;100.00;101893.00;5000036;28;20033;-78
2022/05/29 02:46:27;;;;;;;5.43;2.80;;;;;;;8.37;100.00;101891.56;5001909;28;20014;-78
2022/05/29 02:49:12;;;;;;;4.10;2.05;;;;;;;8.33;100.00;101879.41;4987196;28;20038;-78
2022/05/29 02:51:42;;;;;;;6.47;2.95;;;;;;;8.31;100.00;101886.75;5002948;28;20040;-81
2022/05/29 02:54:12;;;;;;;4.00;2.28;;;;;;;8.22;100.00;101882.16;4999955;28;20115;-78
2022/05/29 02:56:59;;;;;;;3.63;2.10;;;;;;;8.20;100.00;101882.28;4995864;28;20207;-78
2022/05/29 02:59:48;;;;;;;4.85;2.38;;;;;;;7.80;100.00;101839.34;4987437;28;20464;-78
2022/05/29 03:02:57;;;;;;;7.85;2.70;;;;;;;8.00;100.00;101886.69;5000744;28;20099;-78
2022/05/29 03:05:39;;;;;;;6.82;2.90;;;;;;;7.84;100.00;101871.09;5017948;28;20538;-78
2022/05/29 03:08:26;;;;;;;4.63;2.55;;;;;;;7.83;100.00;101885.47;5006005;28;20037;-78
2022/05/29 03:10:58;;;;;;;4.45;2.70;;;;;;;7.43;100.00;101823.72;5002682;28;20128;-78
2022/05/29 03:13:33;;;;;;;4.82;2.97;;;;;;;7.81;100.00;101874.03;4988783;28;20096;-79
2022/05/29 03:16:21;;;;;;;7.45;2.88;;;;;;;7.84;100.00;101875.59;5006078;28;20087;-77
2022/05/29 03:19:13;;;;;;;6.40;2.88;;;;;;;7.76;100.00;101872.72;5018906;28;20033;-77
2022/05/29 03:22:01;;;;;;;8.40;2.90;;;;;;;7.69;100.00;101873.22;5005406;28;20157;-77
2022/05/29 03:24:41;;;;;;;5.82;3.10;;;;;;;7.61;100.00;101872.19;4989835;28;20356;-78
2022/05/29 03:27:19;;;;;;;5.47;2.92;;;;;;;7.51;100.00;101868.56;4999671;28;20038;-78
2022/05/29 03:29:55;;;;;;;4.53;2.80;;;;;;;7.37;100.00;101861.72;5003159;28;20167;-78
2022/05/29 03:32:21;;;;;;;3.83;2.65;;;;;;;7.37;100.00;101862.56;5002825;28;20026;-78
2022/05/29 03:34:47;;;;;;;6.47;2.50;;;;;;;7.41;100.00;101861.34;5002077;28;20464;-78
2022/05/29 03:37:12;;;;;;;3.97;2.60;;;;;;;7.40;100.00;101850.75;5003519;28;20060;-77
2022/05/29 03:39:41;;;;;;;9.55;2.88;;;;;;;7.36;100.00;101846.66;4986364;28;20141;-77
2022/05/29 03:42:07;;;;;;;6.93;2.03;;;;;;;7.24;100.00;101835.13;4989684;28;20129;-77
2022/05/29 03:44:32;;;;;;;6.43;2.80;;;;;;;7.31;100.00;101846.19;5006829;28;20025;-78
2022/05/29 03:46:58;;;;;;;4.45;2.22;;;;;;;7.32;100.00;101846.03;4987680;28;20056;-78
2022/05/29 03:49:24;;;;;;;4.68;2.70;;;;;;;7.35;100.00;101843.09;5001116;28;20142;-79
2022/05/29 03:51:50;;;;;;;6.07;2.17;;;;;;;7.33;100.00;101838.84;5000608;28;20041;-78
2022/05/29 03:54:16;;;;;;;7.80;2.70;;;;;;;7.31;100.00;101839.00;5020409;28;20034;-77
2022/05/29 03:56:42;;;;;;;5.70;2.40;;;;;;;7.33;100.00;101847.75;5000874;28;20103;-79
2022/05/29 03:59:08;;;;;;;7.80;2.60;;;;;;;7.21;100.00;101827.34;4987941;28;20040;-76
2022/05/29 04:01:37;;;;;;;4.13;2.10;;;;;;;7.25;100.00;101837.69;4983629;28;20049;-77
2022/05/29 04:04:06;;;;;;;4.30;2.55;;;;;;;7.33;100.00;101836.16;5017740;28;20038;-78
2022/05/29 04:06:43;;;;;;;4.40;2.67;;;;;;;7.31;100.00;101833.66;5020052;28;20057;-78
2022/05/29 04:12:16;;;;;;;2.15;1.17;;;;;;;7.06;100.00;101773.31;5005482;28;20117;-78
2022/05/29 04:14:43;;;;;;;3.97;2.05;;;;;;;7.43;100.00;101835.28;5001341;28;20116;-77
2022/05/29 04:17:11;;;;;;;4.35;2.40;;;;;;;7.42;100.00;101832.75;5011874;28;20087;-78
2022/05/29 04:19:38;;;;;;;2.00;1.42;;;;;;;7.34;100.00;101820.00;4989163;28;20061;-79
2022/05/29 04:22:14;;;;;;;4.20;2.20;;;;;;;7.30;100.00;101826.56;5005347;28;20041;-77
2022/05/29 04:24:40;;;;;;;6.03;2.65;;;;;;;7.32;100.00;101834.50;5020102;28;20531;-77
2022/05/29 04:27:10;;;;;;;5.22;2.67;;;;;;;7.29;100.00;101826.72;5021243;28;20025;-78
2022/05/29 04:29:36;;;;;;;4.88;2.50;;;;;;;7.29;100.00;101840.94;4987622;28;20071;-78
2022/05/29 04:34:47;;;;;;;3.00;1.48;;;;;;;7.31;100.00;101839.00;5007978;28;20136;-79
2022/05/29 04:37:12;;;;;;;5.50;2.75;;;;;;;7.35;100.00;101842.25;5000231;28;20124;-77
2022/05/29 04:39:38;;;;;;;4.80;2.85;;;;;;;7.29;100.00;101832.91;5002526;28;20022;-78
2022/05/29 04:42:04;;;;;;;6.13;2.80;;;;;;;7.30;100.00;101847.97;5019444;28;20057;-78
2022/05/29 04:44:30;;;;;;;6.53;2.78;;;;;;;7.26;100.00;101835.84;5007076;28;20034;-76
2022/05/29 04:47:00;;;;;;;4.75;2.33;;;;;;;7.37;100.00;101838.47;4991708;28;20033;-77
2022/05/29 04:49:26;;;;;;;5.22;2.13;;;;;;;7.41;100.00;101841.72;4977448;28;20109;-77
2022/05/29 04:51:52;;;;;;;4.00;2.63;;;;;;;7.41;100.00;101831.03;5005289;28;20037;-78
2022/05/29 04:54:17;;;;;;;8.35;2.50;;;;;;;7.59;100.00;101828.63;4989454;28;20033;-77
2022/05/29 04:56:46;;;;;;;3.90;1.90;;;;;;;7.78;100.00;101828.78;4986829;28;20200;-78
2022/05/29 04:59:12;;;;;;;4.38;1.92;;;;;;;7.82;100.00;101835.56;5007462;28;20030;-77
2022/05/29 05:01:38;;;;;;;7.03;2.78;;;;;;;7.80;100.00;101831.31;5007488;28;20041;-77
2022/05/29 05:04:04;;;;;;;8.63;3.05;;;;;;;7.77;100.00;101831.56;4989685;28;20037;-77
2022/05/29 05:06:30;;;;;;;7.35;2.45;;;;;;;7.79;100.00;101825.09;5006200;28;20029;-77
2022/05/29 05:08:56;;;;;;;4.70;2.20;;;;;;;7.95;100.00;101839.88;4992694;28;20026;-78
2022/05/29 05:11:21;;;;;;;10.40;2.78;;;;;;;8.04;99.58;101836.38;5005178;28;20033;-78
2022/05/29 05:13:47;;;;;;;8.43;2.40;;;;;;;8.15;97.94;101839.84;4994264;28;20065;-78
2022/05/29 05:16:13;;;;;;;4.50;2.03;;;;;;;8.21;96.00;101832.25;4997947;28;20095;-77
2022/05/29 05:18:39;;;;;;;4.22;2.03;;;;;;;8.45;93.45;101842.69;5025885;28;20034;-77
2022/05/29 05:21:06;;;;;;;3.20;1.63;;;;;;;8.49;93.41;101838.72;5003397;28;20049;-78
2022/05/29 05:23:35;;;;;;;4.03;1.85;;;;;;;8.51;93.00;101836.75;5001457;28;20081;-77
2022/05/29 05:26:01;;;;;;;2.03;1.27;;;;;;;8.54;93.06;101836.50;5007825;28;20029;-79
2022/05/29 05:28:27;;;;;;;5.07;2.42;;;;;;;8.58;93.05;101843.28;5005551;28;20507;-78
2022/05/29 05:30:52;;;;;;;6.20;2.17;;;;;;;8.61;93.08;101836.81;5007782;28;20038;-79
2022/05/29 05:33:19;;;;;;;3.28;2.75;;;;;;;8.67;91.12;101822.84;4986988;28;20077;-77
2022/05/29 05:35:44;;;;;;;7.72;2.17;;;;;;;8.87;91.20;101829.13;4996484;28;20112;-77
2022/05/29 05:38:10;;;;;;;5.60;2.17;;;;;;;8.89;91.36;101836.03;5003032;28;20034;-78
2022/05/29 05:40:35;;;;;;;4.13;1.73;;;;;;;8.85;91.21;101833.75;5007868;28;20029;-78
2022/05/29 05:43:01;;;;;;;5.72;2.55;;;;;;;9.00;90.76;101837.75;5012902;28;20044;-77
2022/05/29 05:45:27;;;;;;;4.40;2.45;;;;;;;10.06;85.66;101820.69;4989002;28;20037;-79
2022/05/29 05:47:55;;;;;;;3.00;1.92;;;;;;;11.76;76.70;101839.84;5008844;28;20030;-79
2022/05/29 05:50:20;;;;;;;4.72;2.08;;;;;;;12.73;69.73;101831.47;4984368;28;20038;-78
2022/05/29 05:52:46;;;;;;;3.80;1.50;;;;;;;12.63;69.37;101829.91;4968514;28;20095;-78
2022/05/29 05:55:12;;;;;;;7.28;1.73;;;;;;;11.38;72.79;101840.06;5020730;28;20448;-78
2022/05/29 05:57:39;;;;;;;6.03;2.65;;;;;;;10.50;77.59;101830.84;5002219;28;20045;-78
2022/05/29 06:00:12;;;;;;;3.83;1.45;;;;;;;9.94;81.45;101827.22;5005793;28;20030;-79
2022/05/29 06:02:42;;;;;;;5.50;1.70;;;;;;;9.70;83.45;101835.75;5005890;28;20088;-79
2022/05/29 06:05:10;;;;;;;7.15;2.58;;;;;;;9.69;84.21;101836.75;4985641;28;20104;-79
2022/05/29 06:07:35;;;;;;;8.52;2.10;;;;;;;9.74;84.50;101831.81;4987493;28;20034;-78
2022/05/29 06:10:01;;;;;;;2.15;1.65;;;;;;;9.74;83.83;101809.44;5005395;28;20395;-78
2022/05/29 06:12:29;;;;;;;6.03;2.00;;;;;;;9.63;84.59;101827.44;5022986;28;20465;-76
2022/05/29 06:14:57;;;;;;;5.65;1.90;;;;;;;9.58;85.20;101832.38;4999294;28;20094;-78
2022/05/29 06:17:23;;;;;;;2.58;1.50;;;;;;;9.55;85.50;101827.31;5006545;28;20520;-78
2022/05/29 06:19:48;;;;;;;3.75;2.00;;;;;;;9.52;85.50;101832.94;5004716;28;20160;-78
2022/05/29 06:22:14;;;;;;;7.47;2.53;;;;;;;9.49;85.33;101832.38;4989833;28;20530;-79
2022/05/29 06:24:40;;;;;;;7.07;2.58;;;;;;;9.42;85.07;101835.66;5001578;28;20056;-78
2022/05/29 06:27:06;;;;;;;2.88;2.03;;;;;;;9.43;85.11;101834.66;4977173;28;20291;-78
2022/05/29 06:29:32;;;;;;;7.40;2.67;;;;;;;9.38;86.10;101836.06;4985208;28;20056;-78
2022/05/29 06:32:03;;;;;;;6.85;1.63;;;;;;;9.35;85.79;101830.97;5023190;28;20464;-78
2022/05/29 06:34:30;;;;;;;14.50;1.35;;;;;;;9.36;86.07;101835.34;5006700;28;20817;-77
2022/05/29 06:36:55;;;;;;;13.10;2.83;;;;;;;9.45;85.27;101827.31;4994558;28;20295;-78
2022/05/29 06:39:22;;;;;;;7.80;2.10;;;;;;;9.61;84.59;101831.25;4996339;28;20357;-78
2022/05/29 06:41:51;;;;;;;6.00;1.73;;;;;;;9.70;84.76;101825.00;5000092;28;20026;-78
2022/05/29 06:44:16;;;;;;;4.70;2.22;;;;;;;10.28;81.99;101835.63;5006001;28;20353;-78
2022/05/29 06:46:42;;;;;;;5.38;2.05;;;;;;;10.28;80.88;101822.19;5003415;28;20088;-78
2022/05/29 06:49:08;;;;;;;5.05;1.88;;;;;;;10.37;80.55;101833.03;4970204;28;20109;-77
2022/05/29 06:51:34;;;;;;;3.05;1.38;;;;;;;10.48;79.94;101835.56;5003827;28;20030;-77
2022/05/29 06:54:01;;;;;;;10.75;1.55;;;;;;;10.57;80.26;101835.50;5007025;28;20083;-78
2022/05/29 06:56:27;;;;;;;4.85;2.20;;;;;;;10.67;78.60;101840.00;4985152;28;20041;-78
2022/05/29 06:58:55;;;;;;;4.00;1.80;;;;;;;10.76;78.29;101847.97;4986641;28;20559;-77
2022/05/29 07:07:02;;;;;;;4.20;1.52;;;;;;;11.31;75.35;101838.13;5019697;28;20022;-79
2022/05/29 07:09:34;;;;;;;7.03;2.15;;;;;;;11.43;73.30;101842.25;4982216;28;20046;-78
2022/05/29 07:12:28;;;;;;;6.65;1.67;;;;;;;11.56;72.75;101842.72;5014532;28;20026;-80
2022/05/29 07:15:02;;;;;;;3.47;1.65;;;;;;;11.87;72.35;101843.16;5004388;28;20045;-78
2022/05/29 07:17:28;;;;;;;3.63;1.70;;;;;;;12.00;71.39;101834.66;4984678;28;20038;-78
2022/05/29 07:20:00;;;;;;;3.25;1.67;;;;;;;12.25;68.17;101849.13;4998271;28;20065;-80
2022/05/29 07:22:27;;;;;;;3.92;1.63;;;;;;;12.43;68.51;101840.09;4968466;28;20025;-78
2022/05/29 07:24:53;;;;;;;3.03;1.35;;;;;;;12.76;67.22;101839.25;4998126;28;20253;-77
2022/05/29 07:27:19;;;;;;;2.80;1.60;;;;;;;13.80;63.38;101828.91;4998205;28;20079;-77
2022/05/29 07:29:44;;;;;;;4.25;1.48;;;;;;;15.17;56.79;101833.13;5020839;28;20099;-77
2022/05/29 07:32:11;;;;;;;5.32;2.17;;;;;;;16.12;53.91;101834.53;5007838;28;20182;-78
2022/05/29 07:34:37;;;;;;;4.82;1.75;;;;;;;16.83;52.74;101835.72;5013387;28;20034;-76
2022/05/29 07:37:08;;;;;;;3.70;1.50;;;;;;;16.31;51.05;101835.84;4968406;28;20045;-77
2022/05/29 07:39:40;;;;;;;2.67;1.48;;;;;;;15.76;52.81;101846.91;5001099;28;20033;-77
2022/05/29 07:44:52;;;;;;;4.20;1.70;;;;;;;14.75;55.73;101841.66;4999354;28;20029;-77
2022/05/29 07:47:19;;;;;;;2.13;1.95;;;;;;;14.67;56.31;101837.13;4998996;28;20045;-78
2022/05/29 07:49:45;;;;;;;5.40;1.80;;;;;;;14.55;56.07;101833.97;5002728;28;20025;-79
2022/05/29 07:52:10;;;;;;;5.43;1.95;;;;;;;14.24;58.28;101834.72;5001862;28;20064;-77
2022/05/29 07:54:37;;;;;;;3.70;1.92;;;;;;;13.92;59.50;101838.38;4985868;28;20057;-78
2022/05/29 07:57:03;;;;;;;4.45;1.42;;;;;;;13.81;61.39;101830.59;4997069;28;20026;-78
2022/05/29 07:59:29;;;;;;;4.97;1.52;;;;;;;13.77;61.07;101813.88;5001758;28;20042;-78
2022/05/29 08:01:55;;;;;;;4.05;1.48;;;;;;;13.83;60.34;101836.66;5019341;28;20026;-77
2022/05/29 08:04:21;;;;;;;3.17;1.40;;;;;;;13.66;60.82;101843.97;4985485;28;20426;-77
2022/05/29 08:06:47;;;;;;;6.22;1.60;;;;;;;13.92;59.89;101829.38;4985301;28;20042;-78
2022/05/29 08:09:12;;;;;;;7.75;1.92;;;;;;;14.33;57.44;101834.72;5022665;28;20046;-77
2022/05/29 08:11:38;;;;;;;5.65;1.42;;;;;;;15.11;56.10;101834.69;5000447;28;20057;-79
2022/05/29 08:14:04;;;;;;;4.15;1.85;;;;;;;15.71;53.98;101835.75;4982486;28;20037;-77
2022/05/29 08:16:30;;;;;;;5.03;1.52;;;;;;;15.79;54.00;101803.13;4985922;28;20109;-77
2022/05/29 08:18:59;;;;;;;5.03;1.95;;;;;;;16.37;51.97;101826.94;4982230;28;20038;-78
2022/05/29 08:21:24;;;;;;;2.47;1.50;;;;;;;15.94;52.57;101840.31;4987097;28;20364;-77
2022/05/29 08:32:26;;;;;;;3.53;1.75;;;;;;;13.91;58.97;101814.19;5009052;28;20099;-77
2022/05/29 08:34:51;;;;;;;3.65;1.33;;;;;;;13.88;58.96;101811.84;5016452;28;20045;-77
2022/05/29 08:37:17;;;;;;;4.38;1.67;;;;;;;13.83;57.14;101812.34;4997781;28;20026;-76
2022/05/29 08:39:43;;;;;;;2.35;1.23;;;;;;;13.80;55.82;101801.88;5008992;28;20037;-76
2022/05/29 08:42:13;;;;;;;3.60;1.23;;;;;;;13.86;55.81;101806.59;4987464;28;20041;-77
2022/05/29 08:44:51;;;;;;;3.13;1.90;;;;;;;13.80;56.15;101807.28;5003653;28;20040;-76
2022/05/29 08:47:24;;;;;;;7.85;1.48;;;;;;;13.93;56.78;101817.56;4989963;28;20433;-76
2022/05/29 08:49:49;;;;;;;2.40;1.33;;;;;;;14.07;57.13;101808.72;4998228;28;20037;-78
2022/05/29 08:52:27;;;;;;;1.48;1.10;;;;;;;14.35;56.50;101806.47;5001201;28;20042;-77
2022/05/29 08:55:06;;;;;;;5.05;1.60;;;;;;;14.42;55.47;101783.09;5001313;28;20453;-76
2022/05/29 08:57:53;;;;;;;4.18;1.73;;;;;;;15.43;52.85;101783.97;5020009;28;20037;-76
2022/05/29 09:00:31;;;;;;;2.00;1.27;;;;;;;16.02;51.21;101766.97;5005314;28;20030;-76
2022/05/29 09:03:21;;;;;;;3.67;1.38;;;;;;;16.90;48.83;101784.16;4997403;28;20052;-78
2022/05/29 09:05:51;;;;;;;4.93;1.40;;;;;;;17.50;46.91;101771.97;5005864;28;20120;-78
2022/05/29 09:08:20;;;;;;;4.10;1.50;;;;;;;18.04;45.00;101778.66;5007633;28;20116;-77
2022/05/29 09:10:50;;;;;;;8.20;2.13;;;;;;;18.99;43.31;101771.50;4993254;28;20033;-77
2022/05/29 09:13:22;;;;;;;4.97;1.65;;;;;;;18.94;42.88;101775.91;4977680;28;20099;-80
2022/05/29 09:15:51;;;;;;;4.05;1.73;;;;;;;19.72;41.65;101763.38;5006864;28;20030;-78
2022/05/29 09:18:30;;;;;;;3.72;1.45;;;;;;;20.09;39.01;101754.72;4990213;28;20030;-78
2022/05/29 09:21:16;;;;;;;4.57;1.42;;;;;;;20.96;37.51;101716.88;4982195;28;20049;-77
2022/05/29 09:23:54;;;;;;;2.42;1.60;;;;;;;21.95;35.91;101750.72;5003138;28;20033;-78
2022/05/29 09:26:20;;;;;;;1.92;1.15;;;;;;;22.41;34.39;101762.22;4992566;28;20026;-77
2022/05/29 09:28:48;;;;;;;3.10;1.15;;;;;;;21.93;34.71;101753.66;4988724;28;20041;-78
2022/05/29 09:31:20;;;;;;;2.55;1.58;;;;;;;21.36;35.66;101760.31;5005157;28;20034;-78
2022/05/29 09:33:47;;;;;;;3.63;1.90;;;;;;;22.47;33.49;101770.38;5019257;28;20042;-78
2022/05/29 09:36:44;;;;;;;1.92;1.45;;;;;;;22.58;34.52;101752.31;5011248;28;20287;-77
2022/05/29 09:39:19;;;;;;;3.28;1.40;;;;;;;22.81;32.09;101751.53;5010531;28;20022;-77
2022/05/29 09:41:49;;;;;;;6.13;1.70;;;;;;;23.75;31.57;101748.16;5012120;28;20048;-75
2022/05/29 09:44:16;;;;;;;5.00;1.50;;;;;;;24.38;29.50;101752.00;5004366;28;20127;-77
2022/05/29 09:46:44;;;;;;;1.38;0.93;;;;;;;24.08;30.62;101748.38;5007222;28;20022;-76
2022/05/29 09:49:41;;;;;;;2.45;1.13;;;;;;;24.21;28.90;101752.75;5012406;28;20482;-77
2022/05/29 09:52:23;;;;;;;4.00;1.40;;;;;;;24.32;29.71;101737.31;5020991;28;20022;-76
2022/05/29 09:54:55;;;;;;;2.78;1.33;;;;;;;24.72;28.75;101742.81;4999568;28;20034;-76
2022/05/29 09:57:24;;;;;;;2.17;1.10;;;;;;;24.63;29.12;101737.94;5023598;28;20026;-77
2022/05/29 09:59:56;;;;;;;3.80;1.38;;;;;;;24.56;27.85;101718.84;5005800;28;20030;-80
2022/05/29 10:02:26;;;;;;;2.50;1.60;;;;;;;24.63;27.98;101725.00;5021153;28;20492;-76
2022/05/29 10:04:55;;;;;;;1.92;1.35;;;;;;;24.80;27.78;101725.06;5017168;28;20029;-77
2022/05/29 10:07:30;;;;;;;2.75;1.40;;;;;;;24.69;28.15;101718.56;5008268;28;20041;-77
2022/05/29 10:10:08;;;;;;;3.13;1.42;;;;;;;24.77;28.45;101742.06;5014539;28;20029;-76
2022/05/29 10:12:46;;;;;;;2.80;1.35;;;;;;;24.54;28.62;101743.84;5007986;28;20037;-76
2022/05/29 10:15:15;;;;;;;2.03;1.25;;;;;;;24.63;28.73;101735.19;5004507;28;20530;-76
2022/05/29 10:17:41;;;;;;;1.98;1.30;;;;;;;24.85;27.76;101722.41;4986121;28;20045;-75
2022/05/29 10:20:32;;;;;;;3.00;1.33;;;;;;;25.00;28.71;101724.56;4986171;28;20038;-76
2022/05/29 10:23:01;;;;;;;3.00;1.27;;;;;;;24.80;29.55;101719.56;5005069;28;20126;-75
2022/05/29 10:25:34;;;;;;;4.80;1.40;;;;;;;25.23;28.36;101720.88;4969667;28;20034;-76
2022/05/29 10:28:02;;;;;;;4.20;1.38;;;;;;;25.27;28.99;101721.19;4987472;28;20030;-76
2022/05/29 10:30:34;;;;;;;5.60;1.40;;;;;;;25.61;28.36;101719.25;4998750;28;20123;-77
2022/05/29 10:33:07;;;;;;;1.20;1.10;;;;;;;25.91;26.65;101716.13;5002821;28;20041;-77
2022/05/29 10:35:38;;;;;;;4.85;2.78;;;;;;;26.06;28.30;101709.97;4990286;28;20030;-76
2022/05/29 10:38:17;;;;;;;5.65;1.67;;;;;;;25.99;26.41;101690.06;4989870;28;20084;-75
2022/05/29 10:40:43;;;;;;;2.33;1.40;;;;;;;25.57;28.64;101696.91;5007628;28;20053;-78
2022/05/29 10:43:09;;;;;;;2.08;1.30;;;;;;;25.91;29.49;101712.50;5006180;28;20407;-78
2022/05/29 10:45:48;;;;;;;2.78;1.15;;;;;;;25.90;25.47;101691.56;4982240;28;20271;-78
2022/05/29 10:48:22;;;;;;;2.45;1.38;;;;;;;25.67;26.39;101693.47;4988326;28;20029;-81
2022/05/29 10:51:15;;;;;;;2.00;1.20;;;;;;;25.61;27.07;101702.72;5005647;28;20460;-76
2022/05/29 10:54:03;;;;;;;3.95;1.30;;;;;;;25.30;28.62;101704.16;4983811;28;20037;-77
2022/05/29 10:56:57;;;;;;;2.00;1.25;;;;;;;24.40;28.48;101708.59;4986780;28;20080;-75
2022/05/29 10:59:38;;;;;;;3.92;1.55;;;;;;;23.89;30.05;101669.94;4986747;28;20038;-76
2022/05/29 11:05:11;;;;;;;2.75;1.40;;;;;;;26.70;27.86;101701.03;5004399;28;20029;-75
2022/05/29 11:07:48;;;;;;;1.35;1.00;;;;;;;23.92;29.53;101706.00;5003820;28;20061;-78
2022/05/29 11:10:35;;;;;;;3.00;1.70;;;;;;;24.55;27.55;101704.25;5005575;28;20563;-76
2022/05/29 11:13:04;;;;;;;1.27;1.17;;;;;;;24.99;27.47;101696.22;5018603;28;20037;-78
2022/05/29 11:15:38;;;;;;;1.65;1.20;;;;;;;24.84;27.74;101657.47;4988690;28;20054;-77
2022/05/29 11:18:42;;;;;;;2.75;1.58;;;;;;;25.53;27.33;101690.22;5005396;28;20037;-77
2022/05/29 11:21:14;;;;;;;1.58;1.10;;;;;;;25.82;27.64;101693.63;5023837;28;20156;-78
2022/05/29 11:24:09;;;;;;;2.35;1.40;;;;;;;26.27;29.54;101686.22;5005197;28;20028;-77
2022/05/29 11:26:44;;;;;;;2.47;1.40;;;;;;;26.54;27.64;101680.75;5003702;28;20049;-77
2022/05/29 11:29:26;;;;;;;3.30;1.30;;;;;;;26.86;27.49;101685.47;5004435;28;20038;-78
2022/05/29 11:32:20;;;;;;;1.77;1.55;;;;;;;26.33;27.45;101671.44;4998358;28;20046;-79
2022/05/29 11:35:16;;;;;;;2.90;1.45;;;;;;;26.82;24.69;101673.31;4982510;28;20128;-78
2022/05/29 11:37:50;;;;;;;3.53;1.65;;;;;;;27.05;26.39;101667.41;4982136;28;20041;-75
2022/05/29 11:40:18;;;;;;;1.98;1.30;;;;;;;27.23;25.45;101668.13;5018221;28;20045;-75
2022/05/29 11:42:55;;;;;;;2.90;0.98;;;;;;;26.21;25.75;101662.47;4997557;28;20044;-76
2022/05/29 11:45:25;;;;;;;2.60;1.30;;;;;;;25.93;26.91;101667.06;5010016;28;20068;-76
2022/05/29 11:51:15;;;;;;;2.25;1.45;;;;;;;26.45;26.61;101657.47;4996503;28;20120;-76
2022/05/29 11:53:57;;;;;;;2.75;1.45;;;;;;;26.46;25.78;101648.09;4998425;28;20106;-76
2022/05/29 11:56:40;;;;;;;4.63;1.90;;;;;;;26.70;26.24;101643.97;5001122;28;20030;-76
2022/05/29 11:59:25;;;;;;;2.63;1.63;;;;;;;25.97;25.93;101653.66;5001620;28;20041;-76
2022/05/29 12:02:00;;;;;;;2.70;1.67;;;;;;;26.09;27.38;101643.28;5003220;28;20038;-76
2022/05/29 12:04:33;;;;;;;3.20;1.38;;;;;;;26.88;25.49;101594.97;5002267;28;20156;-77
2022/05/29 12:07:05;;;;;;;1.80;1.10;;;;;;;26.63;26.80;101635.06;5023855;28;20026;-76
2022/05/29 12:09:53;;;;;;;4.03;1.40;;;;;;;26.54;27.13;101644.91;5004572;28;21131;-76
2022/05/29 12:13:18;;;;;;;3.50;1.25;;;;;;;25.21;26.43;101621.19;5024892;28;20099;-76
2022/05/29 12:15:47;;;;;;;1.85;1.30;;;;;;;24.78;28.23;101630.97;4978637;28;20124;-76
2022/05/29 12:18:17;;;;;;;1.60;1.30;;;;;;;26.53;26.80;101632.22;4999862;28;20523;-76
2022/05/29 12:20:48;;;;;;;2.90;1.42;;;;;;;27.88;26.39;101625.41;5015324;28;20080;-76